createdAt,value
2023-07-15T00:01:38.314Z,0.3
2023-07-15T00:03:34.303Z,0.3
2023-07-15T00:05:34.330Z,0.3
2023-07-15T00:07:33.984Z,0.3
2023-07-15T00:09:34.124Z,0.3
2023-07-15T00:11:34.228Z,0.3
2023-07-15T00:13:33.622Z,0.3
2023-07-15T00:15:35.339Z,0.3
2023-07-15T00:17:34.586Z,0.3
2023-07-15T00:19:33.413Z,0.3
2023-07-15T00:21:34.299Z,0.3
2023-07-15T00:23:35.045Z,0.3
2023-07-15T00:25:34.213Z,0.3
2023-07-15T00:27:34.311Z,0.3
2023-07-15T00:29:33.453Z,0.3
2023-07-15T00:31:34.572Z,0.3
2023-07-15T00:33:34.557Z,0.3
2023-07-15T00:35:33.496Z,0.3
2023-07-15T00:37:34.644Z,0.3
2023-07-15T00:39:34.245Z,0.3
2023-07-15T00:41:33.862Z,0.3
2023-07-15T00:43:37.189Z,0.3
2023-07-15T00:45:33.790Z,0.3
2023-07-15T00:47:34.766Z,0.3
2023-07-15T00:49:34.347Z,0.3
2023-07-15T00:51:33.905Z,0.3
2023-07-15T00:53:33.365Z,0.3
2023-07-15T00:55:34.095Z,0.3
2023-07-15T00:57:34.370Z,0.3
2023-07-15T00:59:34.231Z,0.3
2023-07-15T01:01:38.010Z,0.3
2023-07-15T01:03:34.799Z,0.3
2023-07-15T01:05:33.385Z,0.3
2023-07-15T01:07:34.681Z,0.3
2023-07-15T01:09:33.916Z,0.3
2023-07-15T01:11:34.619Z,0.3
2023-07-15T01:13:33.707Z,0.3
2023-07-15T01:15:33.426Z,0.3
2023-07-15T01:17:35.338Z,0.3
2023-07-15T01:19:33.677Z,0.3
2023-07-15T01:21:34.202Z,0.3
2023-07-15T01:23:34.038Z,0.3
2023-07-15T01:25:33.520Z,0.3
2023-07-15T01:27:34.478Z,0.3
2023-07-15T01:29:34.085Z,0.3
2023-07-15T01:31:34.150Z,0.3
2023-07-15T01:33:33.625Z,0.3
2023-07-15T01:35:34.048Z,0.3
2023-07-15T01:37:34.392Z,0.3
2023-07-15T01:39:33.525Z,0.3
2023-07-15T01:41:34.149Z,0.3
2023-07-15T01:43:33.517Z,0.3
2023-07-15T01:45:34.371Z,0.3
2023-07-15T01:47:35.218Z,0.3
2023-07-15T01:49:35.515Z,0.3
2023-07-15T01:51:34.020Z,0.3
2023-07-15T01:53:33.646Z,0.3
2023-07-15T01:55:34.158Z,0.3
2023-07-15T01:57:34.418Z,0.3
2023-07-15T01:59:33.370Z,0.3
2023-07-15T02:01:41.685Z,0.3
2023-07-15T02:03:35.565Z,0.3
2023-07-15T02:05:33.773Z,0.3
2023-07-15T02:07:35.089Z,0.3
2023-07-15T02:09:34.553Z,0.3
2023-07-15T02:11:33.795Z,0.3
2023-07-15T02:13:33.400Z,0.3
2023-07-15T02:15:34.151Z,0.3
2023-07-15T02:17:34.636Z,0.3
2023-07-15T02:19:34.226Z,0.3
2023-07-15T02:21:34.224Z,0.3
2023-07-15T02:23:33.798Z,0.3
2023-07-15T02:25:33.955Z,0.3
2023-07-15T02:27:33.958Z,0.3
2023-07-15T02:29:34.184Z,0.3
2023-07-15T02:31:34.440Z,0.3
2023-07-15T02:33:33.679Z,0.3
2023-07-15T02:35:34.338Z,0.3
2023-07-15T02:37:34.616Z,0.3
2023-07-15T02:39:33.641Z,0.3
2023-07-15T02:41:33.654Z,0.3
2023-07-15T02:43:34.219Z,0.3
2023-07-15T02:45:33.828Z,0.3
2023-07-15T02:47:35.793Z,0.3
2023-07-15T02:49:33.884Z,0.3
2023-07-15T02:51:33.770Z,0.3
2023-07-15T02:53:34.121Z,0.3
2023-07-15T02:55:33.737Z,0.3
2023-07-15T02:57:34.164Z,0.3
2023-07-15T02:59:34.225Z,0.3
2023-07-15T03:01:37.753Z,0.3
2023-07-15T03:03:34.062Z,0.3
2023-07-15T03:05:34.771Z,0.3
2023-07-15T03:07:34.142Z,0.3
2023-07-15T03:09:36.676Z,0.3
2023-07-15T03:11:34.159Z,0.3
2023-07-15T03:13:33.860Z,0.3
2023-07-15T03:15:33.256Z,0.3
2023-07-15T03:17:35.177Z,0.3
2023-07-15T03:19:33.665Z,0.3
2023-07-15T03:21:34.187Z,0.3
2023-07-15T03:23:33.984Z,0.3
2023-07-15T03:25:34.061Z,0.3
2023-07-15T03:27:34.308Z,0.3
2023-07-15T03:29:33.345Z,0.3
2023-07-15T03:31:34.120Z,0.3
2023-07-15T03:33:33.876Z,0.3
2023-07-15T03:35:36.346Z,0.3
2023-07-15T03:37:33.652Z,0.3
2023-07-15T03:39:33.416Z,0.3
2023-07-15T03:41:34.409Z,0.3
2023-07-15T03:43:33.901Z,0.3
2023-07-15T03:45:33.435Z,0.3
2023-07-15T03:47:35.051Z,0.3
2023-07-15T03:49:33.751Z,0.3
2023-07-15T03:51:34.403Z,0.3
2023-07-15T03:53:33.779Z,0.3
2023-07-15T03:55:33.428Z,0.3
2023-07-15T03:57:34.404Z,0.3
2023-07-15T03:59:33.810Z,0.3
2023-07-15T04:01:37.189Z,0.3
2023-07-15T04:03:34.310Z,0.3
2023-07-15T04:05:33.957Z,0.3
2023-07-15T04:07:33.977Z,0.3
2023-07-15T04:09:34.110Z,0.3
2023-07-15T04:11:33.734Z,0.3
2023-07-15T04:13:33.462Z,0.3
2023-07-15T04:15:34.098Z,0.3
2023-07-15T04:17:35.036Z,0.3
2023-07-15T04:19:34.388Z,0.3
2023-07-15T04:21:34.572Z,0.3
2023-07-15T04:23:34.006Z,0.3
2023-07-15T04:25:34.179Z,0.3
2023-07-15T04:27:34.514Z,0.3
2023-07-15T04:29:34.039Z,0.3
2023-07-15T04:31:34.172Z,0.3
2023-07-15T04:33:33.753Z,0.3
2023-07-15T04:35:34.945Z,0.3
2023-07-15T04:37:34.244Z,0.3
2023-07-15T04:39:33.373Z,0.3
2023-07-15T04:41:34.144Z,0.3
2023-07-15T04:43:34.221Z,0.3
2023-07-15T04:45:33.697Z,0.3
2023-07-15T04:47:34.455Z,0.3
2023-07-15T04:49:34.164Z,0.3
2023-07-15T04:51:33.717Z,0.3
2023-07-15T04:53:33.303Z,0.3
2023-07-15T04:55:34.073Z,0.3
2023-07-15T04:57:33.904Z,0.3
2023-07-15T04:59:34.010Z,0.3
2023-07-15T05:01:39.006Z,0.3
2023-07-15T05:03:34.817Z,0.3
2023-07-15T05:05:33.860Z,0.3
2023-07-15T05:07:43.638Z,0.3
2023-07-15T05:09:33.732Z,0.3
2023-07-15T05:11:34.705Z,0.3
2023-07-15T05:13:33.943Z,0.3
2023-07-15T05:15:33.579Z,0.3
2023-07-15T05:17:34.334Z,0.3
2023-07-15T05:19:33.745Z,0.3
2023-07-15T05:21:34.341Z,0.3
2023-07-15T05:23:34.343Z,0.3
2023-07-15T05:25:38.045Z,0.3
2023-07-15T05:27:33.837Z,0.3
2023-07-15T05:29:33.570Z,0.3
2023-07-15T05:31:36.378Z,0.3
2023-07-15T05:33:34.187Z,0.3
2023-07-15T05:35:33.632Z,0.3
2023-07-15T05:37:33.982Z,0.3
2023-07-15T05:39:35.070Z,0.3
2023-07-15T05:41:34.316Z,0.3
2023-07-15T05:43:33.984Z,0.3
2023-07-15T05:45:33.567Z,0.3
2023-07-15T05:47:34.528Z,0.3
2023-07-15T05:49:35.717Z,0.3
2023-07-15T05:51:33.717Z,0.3
2023-07-15T05:53:34.183Z,0.3
2023-07-15T05:55:33.471Z,0.3
2023-07-15T05:57:34.102Z,0.3
2023-07-15T05:59:34.043Z,0.3
2023-07-15T06:01:35.300Z,0.3
2023-07-15T06:03:35.193Z,0.3
2023-07-15T06:05:33.924Z,0.3
2023-07-15T06:07:34.163Z,0.3
2023-07-15T06:09:34.086Z,0.3
2023-07-15T06:11:34.003Z,0.3
2023-07-15T06:13:35.187Z,0.3
2023-07-15T06:15:33.708Z,0.3
2023-07-15T06:17:34.722Z,0.3
2023-07-15T06:19:34.001Z,0.3
2023-07-15T06:21:34.881Z,0.3
2023-07-15T06:23:38.476Z,0.3
2023-07-15T06:25:33.355Z,0.3
2023-07-15T06:27:34.728Z,0.3
2023-07-15T06:29:33.843Z,0.3
2023-07-15T06:31:38.321Z,0.3
2023-07-15T06:33:33.875Z,0.3
2023-07-15T06:35:34.186Z,0.3
2023-07-15T06:37:34.014Z,0.3
2023-07-15T06:39:33.687Z,0.3
2023-07-15T06:41:34.050Z,0.3
2023-07-15T06:43:33.385Z,0.3
2023-07-15T06:45:34.784Z,0.3
2023-07-15T06:47:34.216Z,0.3
2023-07-15T06:49:34.308Z,0.3
2023-07-15T06:51:33.566Z,0.3
2023-07-15T06:53:34.081Z,0.3
2023-07-15T06:55:33.737Z,0.3
2023-07-15T06:57:51.817Z,0.3
2023-07-15T06:59:34.038Z,0.3
2023-07-15T07:01:39.833Z,0.3
2023-07-15T07:03:34.335Z,0.3
2023-07-15T07:05:33.869Z,0.3
2023-07-15T07:07:33.762Z,0.3
2023-07-15T07:09:33.920Z,0.3
2023-07-15T07:11:33.662Z,0.3
2023-07-15T07:13:34.205Z,0.3
2023-07-15T07:15:33.776Z,0.3
2023-07-15T07:17:34.386Z,0.3
2023-07-15T07:19:34.955Z,0.3
2023-07-15T07:21:37.615Z,0.3
2023-07-15T07:23:34.016Z,0.3
2023-07-15T07:25:34.269Z,0.3
2023-07-15T07:27:33.664Z,0.3
2023-07-15T07:29:33.245Z,0.3
2023-07-15T07:31:35.016Z,0.3
2023-07-15T07:33:33.881Z,0.3
2023-07-15T07:35:34.199Z,0.3
2023-07-15T07:37:36.072Z,0.3
2023-07-15T07:39:34.058Z,0.3
2023-07-15T07:41:34.137Z,0.3
2023-07-15T07:43:35.648Z,0.3
2023-07-15T07:45:33.985Z,0.3
2023-07-15T07:47:33.875Z,0.3
2023-07-15T07:49:35.593Z,0.3
2023-07-15T07:51:34.022Z,0.3
2023-07-15T07:53:33.492Z,0.3
2023-07-15T07:55:34.211Z,0.3
2023-07-15T07:57:33.658Z,0.3
2023-07-15T07:59:34.005Z,0.3
2023-07-15T08:01:38.250Z,0.3
2023-07-15T08:03:35.627Z,0.3
2023-07-15T08:05:34.484Z,0.3
2023-07-15T08:07:33.296Z,0.3
2023-07-15T08:09:33.893Z,0.3
2023-07-15T08:11:33.676Z,0.3
2023-07-15T08:13:34.149Z,0.3
2023-07-15T08:15:33.742Z,0.3
2023-07-15T08:17:34.960Z,0.3
2023-07-15T08:19:33.812Z,0.3
2023-07-15T08:21:34.596Z,0.3
2023-07-15T08:23:34.841Z,0.3
2023-07-15T08:25:33.425Z,0.3
2023-07-15T08:27:34.071Z,0.3
2023-07-15T08:29:34.032Z,0.3
2023-07-15T08:31:34.110Z,0.3
2023-07-15T08:33:35.034Z,0.3
2023-07-15T08:35:33.606Z,0.3
2023-07-15T08:37:33.305Z,0.3
2023-07-15T08:39:34.023Z,0.3
2023-07-15T08:41:33.969Z,0.3
2023-07-15T08:43:34.318Z,0.3
2023-07-15T08:45:33.919Z,0.3
2023-07-15T08:47:34.591Z,0.3
2023-07-15T08:49:34.393Z,0.3
2023-07-15T08:51:34.190Z,0.3
2023-07-15T08:53:33.551Z,0.3
2023-07-15T08:55:34.576Z,0.3
2023-07-15T08:57:33.557Z,0.3
2023-07-15T08:59:34.000Z,0.3
2023-07-15T09:01:41.418Z,0.3
2023-07-15T09:03:34.723Z,0.3
2023-07-15T09:05:35.016Z,0.3
2023-07-15T09:07:33.551Z,0.3
2023-07-15T09:09:34.157Z,0.3
2023-07-15T09:11:34.053Z,0.3
2023-07-15T09:13:33.623Z,0.3
2023-07-15T09:15:40.763Z,0.3
2023-07-15T09:17:34.836Z,0.3
2023-07-15T09:19:34.492Z,0.3
2023-07-15T09:21:35.061Z,0.3
2023-07-15T09:23:33.919Z,0.3
2023-07-15T09:25:33.908Z,0.3
2023-07-15T09:27:36.882Z,0.3
2023-07-15T09:29:34.108Z,0.3
2023-07-15T09:31:34.059Z,0.3
2023-07-15T09:33:34.467Z,0.3
2023-07-15T09:35:33.970Z,0.3
2023-07-15T09:37:34.150Z,0.3
2023-07-15T09:39:33.909Z,0.3
2023-07-15T09:41:33.792Z,0.3
2023-07-15T09:43:34.031Z,0.3
2023-07-15T09:45:33.871Z,0.3
2023-07-15T09:47:33.928Z,0.3
2023-07-15T09:49:34.113Z,0.3
2023-07-15T09:51:33.765Z,0.3
2023-07-15T09:53:33.438Z,0.3
2023-07-15T09:55:34.066Z,0.3
2023-07-15T09:57:33.550Z,0.3
2023-07-15T09:59:34.193Z,0.3
2023-07-15T10:01:37.817Z,0.3
2023-07-15T10:03:36.900Z,0.3
2023-07-15T10:05:34.353Z,0.3
2023-07-15T10:07:33.771Z,0.3
2023-07-15T10:09:38.048Z,0.3
2023-07-15T10:11:34.364Z,0.3
2023-07-15T10:13:33.816Z,0.3
2023-07-15T10:15:34.342Z,0.3
2023-07-15T10:17:34.292Z,0.3
2023-07-15T10:19:34.440Z,0.3
2023-07-15T10:21:37.368Z,0.3
2023-07-15T10:23:34.129Z,0.3
2023-07-15T10:25:34.311Z,0.3
2023-07-15T10:27:34.110Z,0.3
2023-07-15T10:29:33.816Z,0.3
2023-07-15T10:31:53.052Z,0.3
2023-07-15T10:33:35.883Z,0.3
2023-07-15T10:35:33.842Z,0.3
2023-07-15T10:37:33.368Z,0.3
2023-07-15T10:39:36.198Z,0.3
2023-07-15T10:41:33.872Z,0.3
2023-07-15T10:43:34.338Z,0.3
2023-07-15T10:45:33.855Z,0.3
2023-07-15T10:47:35.933Z,0.3
2023-07-15T10:49:34.840Z,0.3
2023-07-15T10:51:33.939Z,0.3
2023-07-15T10:53:34.265Z,0.3
2023-07-15T10:55:34.108Z,0.3
2023-07-15T10:57:48.959Z,0.3
2023-07-15T10:59:33.985Z,0.3
2023-07-15T11:01:34.704Z,0.3
2023-07-15T11:03:34.697Z,0.3
2023-07-15T11:05:34.874Z,0.3
2023-07-15T11:07:35.343Z,0.3
2023-07-15T11:09:34.217Z,0.3
2023-07-15T11:11:33.926Z,0.3
2023-07-15T11:13:33.217Z,0.3
2023-07-15T11:15:34.197Z,0.3
2023-07-15T11:17:34.506Z,0.3
2023-07-15T11:19:34.465Z,0.3
2023-07-15T11:21:34.258Z,0.3
2023-07-15T11:23:34.264Z,0.3
2023-07-15T11:25:34.217Z,0.3
2023-07-15T11:27:35.074Z,0.3
2023-07-15T11:29:33.766Z,0.3
2023-07-15T11:31:35.091Z,0.3
2023-07-15T11:33:33.890Z,0.3
2023-07-15T11:35:36.167Z,0.3
2023-07-15T11:37:34.676Z,0.3
2023-07-15T11:39:33.721Z,0.3
2023-07-15T11:41:38.136Z,0.3
2023-07-15T11:43:33.857Z,0.3
2023-07-15T11:45:37.578Z,0.3
2023-07-15T11:47:35.376Z,0.3
2023-07-15T11:49:34.188Z,0.3
2023-07-15T11:51:34.407Z,0.3
2023-07-15T11:53:33.905Z,0.3
2023-07-15T11:55:33.859Z,0.3
2023-07-15T11:57:35.003Z,0.3
2023-07-15T11:59:33.816Z,0.3
2023-07-15T12:01:56.368Z,0.3
2023-07-15T12:03:38.426Z,0.3
2023-07-15T12:05:34.185Z,0.3
2023-07-15T12:07:34.718Z,0.3
2023-07-15T12:09:33.923Z,0.3
2023-07-15T12:11:33.807Z,0.3
2023-07-15T12:13:35.325Z,0.3
2023-07-15T12:15:34.078Z,272.88
2023-07-15T12:17:34.930Z,272.88
2023-07-15T12:19:37.072Z,272.88
2023-07-15T12:21:33.532Z,29218.2
2023-07-15T12:23:34.609Z,29218.2
2023-07-15T12:25:34.073Z,29218.2
2023-07-15T12:27:34.217Z,29218.2
2023-07-15T12:29:34.015Z,29218.2
2023-07-15T12:31:38.463Z,29218.2
2023-07-15T12:33:34.322Z,29218.2
2023-07-15T12:35:37.569Z,29218.2
2023-07-15T12:37:33.316Z,29218.2
2023-07-15T12:39:34.090Z,29218.2
2023-07-15T12:41:33.900Z,29218.2
2023-07-15T12:43:34.203Z,29218.2
2023-07-15T12:45:33.811Z,29218.2
2023-07-15T12:47:34.835Z,29218.2
2023-07-15T12:49:34.225Z,29218.2
2023-07-15T12:51:34.062Z,29218.2
2023-07-15T12:53:33.500Z,29218.2
2023-07-15T12:55:34.012Z,29218.2
2023-07-15T12:57:33.966Z,29218.2
2023-07-15T12:59:36.903Z,29218.2
2023-07-15T13:01:37.345Z,29218.2
2023-07-15T13:03:34.485Z,29218.2
2023-07-15T13:05:38.189Z,29218.2
2023-07-15T13:07:33.550Z,29218.2
2023-07-15T13:09:33.882Z,29218.2
2023-07-15T13:11:34.037Z,29218.2
2023-07-15T13:13:33.556Z,29218.2
2023-07-15T13:15:34.157Z,29218.2
2023-07-15T13:17:34.852Z,29218.2
2023-07-15T13:19:33.316Z,29218.2
2023-07-15T13:21:34.581Z,29218.2
2023-07-15T13:23:34.323Z,29218.2
2023-07-15T13:25:34.087Z,29218.2
2023-07-15T13:27:34.002Z,29218.2
2023-07-15T13:29:33.643Z,29218.2
2023-07-15T13:31:34.770Z,29218.2
2023-07-15T13:33:34.554Z,29218.2
2023-07-15T13:35:33.724Z,29218.2
2023-07-15T13:37:34.116Z,29218.2
2023-07-15T13:39:35.625Z,29218.2
2023-07-15T13:41:33.790Z,29218.2
2023-07-15T13:43:34.369Z,29218.2
2023-07-15T13:45:37.411Z,29218.2
2023-07-15T13:47:34.461Z,29218.2
2023-07-15T13:49:36.433Z,29218.2
2023-07-15T13:51:33.561Z,29218.2
2023-07-15T13:53:34.180Z,29218.2
2023-07-15T13:55:33.665Z,29218.2
2023-07-15T13:57:34.175Z,29218.2
2023-07-15T13:59:34.076Z,29218.2
2023-07-15T14:01:46.350Z,29218.2
2023-07-15T14:03:34.327Z,29218.2
2023-07-15T14:05:33.991Z,29218.2
2023-07-15T14:07:34.610Z,29218.2
2023-07-15T14:09:33.886Z,29218.2
2023-07-15T14:11:33.740Z,29218.2
2023-07-15T14:13:36.751Z,29218.2
2023-07-15T14:15:33.666Z,29218.2
2023-07-15T14:17:34.176Z,29218.2
2023-07-15T14:19:33.940Z,29218.2
2023-07-15T14:21:33.786Z,29218.2
2023-07-15T14:25:34.292Z,29218.2
2023-07-15T14:27:34.093Z,29218.2
2023-07-15T14:29:33.570Z,29218.2
2023-07-15T14:31:34.917Z,29218.2
2023-07-15T14:33:36.716Z,29218.2
2023-07-15T14:35:33.751Z,29218.2
2023-07-15T14:37:34.612Z,29218.2
2023-07-15T14:43:34.554Z,29218.2
2023-07-15T14:45:46.008Z,29218.2
2023-07-15T14:47:34.037Z,29218.2
2023-07-15T14:49:37.504Z,29218.2
2023-07-15T14:51:33.651Z,29218.2
2023-07-15T14:53:33.357Z,29218.2
2023-07-15T14:55:36.698Z,29218.2
2023-07-15T14:57:33.673Z,29218.2
2023-07-15T14:59:34.115Z,29218.2
2023-07-15T15:01:42.602Z,29218.2
2023-07-15T15:03:34.058Z,29218.2
2023-07-15T15:05:34.413Z,29218.2
2023-07-15T15:07:36.724Z,29218.2
2023-07-15T15:09:34.211Z,29218.2
2023-07-15T15:11:33.932Z,29218.2
2023-07-15T15:13:38.602Z,29218.2
2023-07-15T15:15:33.992Z,29218.2
2023-07-15T15:17:34.290Z,29218.2
2023-07-15T15:19:37.874Z,29218.2
2023-07-15T15:21:33.940Z,29218.2
2023-07-15T15:23:33.992Z,29218.2
2023-07-15T15:25:38.761Z,29218.2
2023-07-15T15:27:33.964Z,29218.2
2023-07-15T15:29:33.414Z,29218.2
2023-07-15T15:31:36.446Z,29218.2
2023-07-15T15:33:34.840Z,29218.2
2023-07-15T15:35:34.776Z,29218.2
2023-07-15T15:37:34.491Z,29218.2
2023-07-15T15:39:33.517Z,29218.2
2023-07-15T15:41:34.288Z,29218.2
2023-07-15T15:43:33.815Z,29218.2
2023-07-15T15:45:33.530Z,29218.2
2023-07-15T15:47:34.463Z,29218.2
2023-07-15T15:49:37.360Z,29218.2
2023-07-15T15:51:33.419Z,29218.2
2023-07-15T15:53:34.205Z,29218.2
2023-07-15T15:55:33.898Z,29218.2
2023-07-15T15:57:33.318Z,29218.2
2023-07-15T15:59:34.018Z,29218.2
2023-07-15T16:01:33.960Z,29218.2
2023-07-15T16:03:34.964Z,29218.2
2023-07-15T16:05:34.351Z,29218.2
2023-07-15T16:07:34.276Z,29218.2
2023-07-15T16:09:34.070Z,29218.2
2023-07-15T16:11:34.285Z,29218.2
2023-07-15T16:13:36.041Z,29218.2
2023-07-15T16:15:34.084Z,29218.2
2023-07-15T16:17:34.046Z,29218.2
2023-07-15T16:19:35.665Z,29218.2
2023-07-15T16:21:34.142Z,29218.2
2023-07-15T16:23:33.803Z,29218.2
2023-07-15T16:25:33.881Z,29218.2
2023-07-15T16:27:33.374Z,29218.2
2023-07-15T16:29:34.297Z,90.09
2023-07-15T16:31:35.854Z,61.46
2023-07-15T16:33:35.272Z,61.46
2023-07-15T16:35:33.702Z,5481.16
2023-07-15T16:37:36.534Z,4666.64
2023-07-15T16:39:33.808Z,4666.64
2023-07-15T16:41:33.722Z,1.55
2023-07-15T16:43:35.904Z,1.44
2023-07-15T16:45:33.370Z,1.44
2023-07-15T16:47:34.577Z,0.9
2023-07-15T16:49:34.836Z,908.86
2023-07-15T16:51:33.643Z,908.86
2023-07-15T16:53:34.138Z,0.64
2023-07-15T16:55:33.721Z,658.59
2023-07-15T16:57:34.853Z,658.59
2023-07-15T16:59:34.434Z,509.78
2023-07-15T17:01:41.849Z,0.47
2023-07-15T17:03:34.917Z,0.47
2023-07-15T17:05:33.746Z,0.37
2023-07-15T17:07:33.901Z,0.36
2023-07-15T17:09:33.841Z,0.36
2023-07-15T17:11:34.591Z,320.25
2023-07-15T17:13:33.749Z,320.25
2023-07-15T17:15:33.559Z,320.25
2023-07-15T17:17:34.731Z,280.57
2023-07-15T17:19:33.673Z,0.27
2023-07-15T17:21:34.233Z,0.27
2023-07-15T17:23:34.211Z,250.25
2023-07-15T17:25:33.515Z,0.23
2023-07-15T17:27:34.364Z,0.23
2023-07-15T17:29:33.872Z,216.98
2023-07-15T17:31:34.526Z,0.2
2023-07-15T17:33:36.795Z,0.2
2023-07-15T17:35:33.583Z,0.19
2023-07-15T17:37:34.514Z,191.71
2023-07-15T17:39:34.022Z,191.71
2023-07-15T17:41:33.649Z,0.18
2023-07-15T17:43:35.433Z,0.18
2023-07-15T17:45:34.052Z,0.18
2023-07-15T17:47:37.363Z,159.84
2023-07-15T17:49:34.012Z,0.15
2023-07-15T17:51:34.081Z,0.15
2023-07-15T17:53:37.805Z,151.46
2023-07-15T17:55:49.265Z,0.14
2023-07-15T17:57:33.586Z,0.14
2023-07-15T17:59:34.194Z,0.14
2023-07-15T18:01:40.707Z,0.14
2023-07-15T18:03:36.701Z,0.14
2023-07-15T18:05:33.564Z,147.38
2023-07-15T18:07:33.774Z,0.14
2023-07-15T18:09:38.350Z,0.14
2023-07-15T18:11:33.863Z,131.81
2023-07-15T18:13:33.751Z,135.59
2023-07-15T18:15:34.347Z,135.59
2023-07-15T18:17:37.446Z,0.12
2023-07-15T18:19:33.240Z,0.12
2023-07-15T18:21:34.938Z,0.12
2023-07-15T18:23:34.265Z,0.1
2023-07-15T18:25:34.481Z,0.1
2023-07-15T18:27:34.519Z,0.1
2023-07-15T18:29:33.567Z,0.07
2023-07-15T18:31:34.794Z,0.07
2023-07-15T18:33:34.548Z,0.07
2023-07-15T18:35:53.978Z,0.06
2023-07-15T18:37:33.655Z,0.06
2023-07-15T18:39:33.290Z,0.06
2023-07-15T18:41:34.291Z,0.06
2023-07-15T18:43:33.693Z,0.05
2023-07-15T18:45:34.261Z,0.05
2023-07-15T18:47:34.015Z,50.41
2023-07-15T18:49:34.580Z,50.41
2023-07-15T18:51:37.822Z,50.41
2023-07-15T18:53:33.446Z,0.04
2023-07-15T18:55:33.980Z,44.72
2023-07-15T18:57:47.050Z,44.72
2023-07-15T18:59:33.390Z,41.16
2023-07-15T19:01:38.006Z,41.16
2023-07-15T19:03:34.557Z,41.16
2023-07-15T19:05:33.643Z,41.16
2023-07-15T19:07:33.931Z,41.16
2023-07-15T19:09:33.695Z,41.16
2023-07-15T19:11:36.637Z,41.16
2023-07-15T19:13:33.759Z,41.16
2023-07-15T19:15:33.583Z,41.16
2023-07-15T19:17:34.098Z,41.16
2023-07-15T19:19:34.033Z,41.16
2023-07-15T19:21:33.780Z,41.16
2023-07-15T19:23:37.125Z,41.16
2023-07-15T19:25:33.891Z,41.16
2023-07-15T19:27:33.590Z,41.16
2023-07-15T19:29:34.165Z,41.16
2023-07-15T19:31:34.580Z,41.16
2023-07-15T19:33:33.733Z,41.16
2023-07-15T19:35:34.071Z,41.16
2023-07-15T19:37:33.870Z,41.16
2023-07-15T19:39:33.939Z,41.16
2023-07-15T19:41:34.258Z,41.16
2023-07-15T19:43:33.979Z,41.16
2023-07-15T19:45:35.577Z,41.16
2023-07-15T19:47:35.668Z,41.16
2023-07-15T19:49:33.728Z,41.16
2023-07-15T19:51:55.176Z,41.16
2023-07-15T19:53:37.487Z,41.16
2023-07-15T19:55:33.646Z,41.16
2023-07-15T19:57:34.794Z,41.16
2023-07-15T19:59:33.819Z,41.16
2023-07-15T20:01:37.812Z,41.16
2023-07-15T20:03:34.855Z,41.16
2023-07-15T20:05:34.189Z,41.16
2023-07-15T20:07:33.788Z,41.16
2023-07-15T20:09:33.907Z,41.16
2023-07-15T20:11:33.922Z,41.16
2023-07-15T20:13:33.492Z,41.16
2023-07-15T20:15:34.085Z,41.16
2023-07-15T20:17:35.181Z,41.16
2023-07-15T20:19:34.264Z,41.16
2023-07-15T20:21:35.828Z,41.16
2023-07-15T20:23:34.056Z,41.16
2023-07-15T20:25:33.303Z,41.16
2023-07-15T20:27:34.424Z,41.16
2023-07-15T20:29:33.559Z,41.16
2023-07-15T20:31:34.568Z,41.16
2023-07-15T20:33:37.802Z,41.16
2023-07-15T20:35:33.616Z,41.16
2023-07-15T20:37:34.211Z,41.16
2023-07-15T20:39:33.568Z,41.16
2023-07-15T20:41:52.554Z,41.16
2023-07-15T20:43:34.250Z,41.16
2023-07-15T20:45:33.809Z,41.16
2023-07-15T20:47:34.339Z,41.16
2023-07-15T20:49:34.257Z,41.16
2023-07-15T20:51:34.177Z,41.16
2023-07-15T20:53:33.580Z,41.16
2023-07-15T20:55:34.278Z,41.16
2023-07-15T20:57:34.099Z,41.16
2023-07-15T20:59:34.108Z,41.16
2023-07-15T21:01:43.696Z,41.16
2023-07-15T21:03:37.287Z,41.16
2023-07-15T21:05:34.301Z,41.16
2023-07-15T21:07:33.995Z,41.16
2023-07-15T21:09:33.442Z,41.16
2023-07-15T21:11:36.307Z,41.16
2023-07-15T21:13:34.479Z,41.16
2023-07-15T21:15:33.307Z,41.16
2023-07-15T21:17:34.980Z,41.16
2023-07-15T21:19:33.958Z,41.16
2023-07-15T21:21:37.351Z,41.16
2023-07-15T21:23:34.283Z,41.16
2023-07-15T21:25:33.628Z,41.16
2023-07-15T21:27:39.355Z,41.16
2023-07-15T21:29:34.313Z,41.16
2023-07-15T21:31:34.650Z,41.16
2023-07-15T21:33:34.862Z,41.16
2023-07-15T21:35:34.331Z,41.16
2023-07-15T21:37:34.513Z,41.16
2023-07-15T21:39:33.564Z,41.16
2023-07-15T21:41:34.379Z,41.16
2023-07-15T21:43:34.127Z,41.16
2023-07-15T21:45:33.248Z,41.16
2023-07-15T21:47:35.558Z,41.16
2023-07-15T21:49:33.730Z,41.16
2023-07-15T21:51:34.415Z,41.16
2023-07-15T21:53:34.141Z,41.16
2023-07-15T21:55:33.441Z,41.16
2023-07-15T21:57:34.792Z,41.16
2023-07-15T21:59:33.815Z,41.16
2023-07-15T22:01:38.174Z,41.16
2023-07-15T22:03:34.357Z,41.16
2023-07-15T22:05:33.330Z,41.16
2023-07-15T22:07:34.169Z,41.16
2023-07-15T22:09:33.945Z,41.16
2023-07-15T22:11:34.682Z,41.16
2023-07-15T22:13:34.153Z,41.16
2023-07-15T22:15:33.634Z,41.16
2023-07-15T22:17:34.799Z,41.16
2023-07-15T22:19:50.713Z,41.16
2023-07-15T22:21:34.246Z,41.16
2023-07-15T22:23:34.537Z,41.16
2023-07-15T22:25:33.666Z,41.16
2023-07-15T22:27:33.414Z,41.16
2023-07-15T22:29:34.127Z,41.16
2023-07-15T22:31:33.944Z,41.16
2023-07-15T22:33:34.449Z,41.16
2023-07-15T22:35:33.667Z,41.16
2023-07-15T22:37:33.674Z,41.16
2023-07-15T22:39:33.873Z,41.16
2023-07-15T22:41:33.926Z,41.16
2023-07-15T22:43:33.415Z,41.16
2023-07-15T22:45:42.254Z,41.16
2023-07-15T22:47:34.199Z,41.16
2023-07-15T22:49:34.238Z,41.16
2023-07-15T22:51:34.020Z,41.16
2023-07-15T22:53:34.617Z,41.16
2023-07-15T22:55:34.058Z,41.16
2023-07-15T22:57:34.538Z,41.16
2023-07-15T22:59:34.446Z,41.16
2023-07-15T23:01:35.375Z,41.16
2023-07-15T23:03:34.847Z,41.16
2023-07-15T23:05:34.095Z,41.16
2023-07-15T23:07:34.128Z,41.16
2023-07-15T23:09:34.290Z,41.16
2023-07-15T23:11:34.785Z,41.16
2023-07-15T23:13:33.249Z,41.16
2023-07-15T23:15:34.525Z,41.16
2023-07-15T23:17:54.464Z,41.16
2023-07-15T23:19:37.415Z,41.16
2023-07-15T23:21:34.227Z,41.16
2023-07-15T23:23:51.649Z,41.16
2023-07-15T23:25:33.984Z,41.16
2023-07-15T23:27:33.939Z,41.16
2023-07-15T23:29:34.154Z,41.16
2023-07-15T23:31:34.523Z,41.16
2023-07-15T23:33:33.836Z,41.16
2023-07-15T23:35:35.651Z,41.16
2023-07-15T23:37:34.720Z,41.16
2023-07-15T23:39:34.934Z,41.16
2023-07-15T23:41:34.140Z,41.16
2023-07-15T23:43:33.493Z,41.16
2023-07-15T23:45:34.339Z,41.16
2023-07-15T23:47:34.881Z,41.16
2023-07-15T23:49:33.469Z,41.16
2023-07-15T23:51:34.121Z,41.16
2023-07-15T23:53:33.863Z,41.16
2023-07-15T23:55:33.463Z,41.16
2023-07-15T23:57:34.243Z,41.16
2023-07-15T23:59:33.549Z,41.16
